Time,TemperatureF,DewpointF,PressureIn,WindDirection,WindDirectionDegrees,WindSpeedMPH,WindSpeedGustMPH,Humidity,HourlyPrecipIn,Conditions,Clouds,dailyrainin,SoftwareType,DateUTC
2013-03-03 00:02:00,45.0,27.0,30.28,North,355,0.0,-999.0,49,0.00,,,0.00,,2013-03-03 06:02:00,
2013-03-03 00:11:00,45.0,27.0,30.28,North,355,0.0,-999.0,49,0.00,,,0.00,,2013-03-03 06:11:00,
2013-03-03 00:21:00,45.0,28.0,30.28,North,355,0.0,-999.0,52,0.00,,,0.00,,2013-03-03 06:21:00,
2013-03-03 00:31:00,43.0,28.0,30.28,North,355,1.0,-999.0,55,0.00,,,0.00,,2013-03-03 06:31:00,
2013-03-03 00:42:00,43.0,28.0,30.28,North,355,1.0,-999.0,55,0.00,,,0.00,,2013-03-03 06:42:00,
2013-03-03 00:52:00,43.0,28.0,30.27,North,355,0.0,-999.0,55,0.00,,,0.00,,2013-03-03 06:52:00,
2013-03-03 01:01:00,45.0,27.0,30.27,North,355,2.0,-999.0,49,0.00,,,0.00,,2013-03-03 07:01:00,
2013-03-03 01:11:00,45.0,27.0,30.27,North,355,2.0,-999.0,49,0.00,,,0.00,,2013-03-03 07:11:00,
2013-03-03 01:21:00,42.0,27.0,30.27,North,355,0.0,-999.0,56,0.00,,,0.00,,2013-03-03 07:21:00,
2013-03-03 01:31:00,45.0,28.0,30.27,SW,233,3.0,-999.0,51,0.00,,,0.00,,2013-03-03 07:31:00,
2013-03-03 01:42:00,45.0,28.0,30.27,SW,233,3.0,-999.0,51,0.00,,,0.00,,2013-03-03 07:42:00,
2013-03-03 01:52:00,46.0,27.0,30.28,SW,232,3.0,-999.0,47,0.00,,,0.00,,2013-03-03 07:52:00,
2013-03-03 02:01:00,46.0,27.0,30.27,SW,232,2.0,-999.0,47,0.00,,,0.00,,2013-03-03 08:01:00,
2013-03-03 02:11:00,46.0,27.0,30.27,SW,232,2.0,-999.0,47,0.00,,,0.00,,2013-03-03 08:11:00,
2013-03-03 02:21:00,45.0,27.0,30.27,SW,232,0.0,-999.0,49,0.00,,,0.00,,2013-03-03 08:21:00,
2013-03-03 02:31:00,45.0,27.0,30.27,SW,232,0.0,-999.0,49,0.00,,,0.00,,2013-03-03 08:31:00,
2013-03-03 02:41:00,45.0,27.0,30.27,SW,232,0.0,-999.0,49,0.00,,,0.00,,2013-03-03 08:41:00,
2013-03-03 02:53:00,45.0,27.0,30.26,SW,217,2.0,-999.0,48,0.00,,,0.00,,2013-03-03 08:53:00,
2013-03-03 03:01:00,46.0,27.0,30.26,SW,217,0.0,-999.0,47,0.00,,,0.00,,2013-03-03 09:01:00,
2013-03-03 03:11:00,46.0,27.0,30.26,SW,217,0.0,-999.0,47,0.00,,,0.00,,2013-03-03 09:11:00,
2013-03-03 03:21:00,42.0,26.0,30.25,SW,218,2.0,-999.0,53,0.00,,,0.00,,2013-03-03 09:21:00,
2013-03-03 03:32:00,41.0,26.0,30.24,SW,218,1.0,-999.0,55,0.00,,,0.00,,2013-03-03 09:32:00,
2013-03-03 03:41:00,41.0,26.0,30.24,SW,218,1.0,-999.0,55,0.00,,,0.00,,2013-03-03 09:41:00,
2013-03-03 03:51:00,39.0,27.0,30.24,WNW,298,1.0,-999.0,61,0.00,,,0.00,,2013-03-03 09:51:00,
2013-03-03 04:01:00,42.0,27.0,30.24,WNW,298,2.0,-999.0,54,0.00,,,0.00,,2013-03-03 10:01:00,
2013-03-03 04:11:00,42.0,27.0,30.24,WNW,298,2.0,-999.0,54,0.00,,,0.00,,2013-03-03 10:11:00,
2013-03-03 04:21:00,42.0,26.0,30.23,WNW,298,2.0,-999.0,53,0.00,,,0.00,,2013-03-03 10:21:00,
2013-03-03 04:32:00,39.0,26.0,30.24,WNW,298,1.0,-999.0,59,0.00,,,0.00,,2013-03-03 10:32:00,
2013-03-03 04:42:00,39.0,26.0,30.24,WNW,298,1.0,-999.0,59,0.00,,,0.00,,2013-03-03 10:42:00,
2013-03-03 04:52:00,42.0,26.0,30.24,WNW,294,4.0,-999.0,53,0.00,,,0.00,,2013-03-03 10:52:00,
2013-03-03 05:01:00,42.0,26.0,30.24,WNW,288,2.0,-999.0,52,0.00,,,0.00,,2013-03-03 11:01:00,
2013-03-03 05:11:00,42.0,26.0,30.24,WNW,288,2.0,-999.0,52,0.00,,,0.00,,2013-03-03 11:11:00,
2013-03-03 05:21:00,43.0,26.0,30.24,WNW,288,2.0,-999.0,51,0.00,,,0.00,,2013-03-03 11:21:00,
2013-03-03 05:32:00,40.0,25.0,30.24,WNW,288,2.0,-999.0,55,0.00,,,0.00,,2013-03-03 11:32:00,
2013-03-03 05:42:00,40.0,25.0,30.24,WNW,288,2.0,-999.0,55,0.00,,,0.00,,2013-03-03 11:42:00,
2013-03-03 05:52:00,41.0,26.0,30.24,WNW,288,0.0,-999.0,54,0.00,,,0.00,,2013-03-03 11:52:00,
2013-03-03 06:01:00,40.0,26.0,30.24,WNW,288,0.0,-999.0,56,0.00,,,0.00,,2013-03-03 12:01:00,
2013-03-03 06:11:00,40.0,26.0,30.24,WNW,288,0.0,-999.0,56,0.00,,,0.00,,2013-03-03 12:11:00,
2013-03-03 06:21:00,37.0,26.0,30.24,WNW,288,0.0,-999.0,63,0.00,,,0.00,,2013-03-03 12:21:00,
2013-03-03 06:32:00,37.0,26.0,30.24,WNW,288,0.0,-999.0,63,0.00,,,0.00,,2013-03-03 12:32:00,
2013-03-03 06:42:00,37.0,26.0,30.24,WNW,288,0.0,-999.0,63,0.00,,,0.00,,2013-03-03 12:42:00,
2013-03-03 06:53:00,38.0,26.0,30.24,WNW,288,0.0,-999.0,62,0.00,,,0.00,,2013-03-03 12:53:00,
2013-03-03 07:01:00,37.0,26.0,30.24,WNW,288,0.0,-999.0,63,0.00,,,0.00,,2013-03-03 13:01:00,
2013-03-03 07:11:00,37.0,26.0,30.24,WNW,288,0.0,-999.0,63,0.00,,,0.00,,2013-03-03 13:11:00,
2013-03-03 07:22:00,37.0,26.0,30.24,WNW,288,1.0,-999.0,64,0.00,,,0.00,,2013-03-03 13:22:00,
2013-03-03 07:32:00,36.0,26.0,30.24,WNW,288,0.0,-999.0,66,0.00,,,0.00,,2013-03-03 13:32:00,
2013-03-03 07:42:00,36.0,26.0,30.24,WNW,288,0.0,-999.0,66,0.00,,,0.00,,2013-03-03 13:42:00,
2013-03-03 07:52:00,37.0,26.0,30.24,WNW,288,0.0,-999.0,64,0.00,,,0.00,,2013-03-03 13:52:00,
2013-03-03 08:02:00,37.0,26.0,30.25,WNW,288,0.0,-999.0,64,0.00,,,0.00,,2013-03-03 14:02:00,
2013-03-03 08:11:00,37.0,26.0,30.25,WNW,288,0.0,-999.0,64,0.00,,,0.00,,2013-03-03 14:11:00,
2013-03-03 08:21:00,41.0,30.0,30.25,WNW,283,1.0,-999.0,65,0.00,,,0.00,,2013-03-03 14:21:00,
2013-03-03 08:32:00,45.0,29.0,30.26,WNW,283,3.0,-999.0,54,0.00,,,0.00,,2013-03-03 14:32:00,
2013-03-03 08:42:00,45.0,29.0,30.26,WNW,283,3.0,-999.0,54,0.00,,,0.00,,2013-03-03 14:42:00,
2013-03-03 08:52:00,47.0,29.0,30.26,SSW,197,3.0,-999.0,50,0.00,,,0.00,,2013-03-03 14:52:00,
2013-03-03 09:01:00,49.0,29.0,30.25,SSE,160,3.0,-999.0,46,0.00,,,0.00,,2013-03-03 15:01:00,
2013-03-03 09:11:00,49.0,29.0,30.25,SSE,160,3.0,-999.0,46,0.00,,,0.00,,2013-03-03 15:11:00,
2013-03-03 09:22:00,51.0,30.0,30.26,South,188,7.0,-999.0,44,0.00,,,0.00,,2013-03-03 15:22:00,
2013-03-03 09:32:00,53.0,32.0,30.26,SW,220,4.0,-999.0,44,0.00,,,0.00,,2013-03-03 15:32:00,
2013-03-03 09:42:00,53.0,32.0,30.26,SW,220,4.0,-999.0,44,0.00,,,0.00,,2013-03-03 15:42:00,
2013-03-03 09:52:00,54.0,34.0,30.25,South,175,6.0,-999.0,46,0.00,,,0.00,,2013-03-03 15:52:00,
2013-03-03 10:01:00,55.0,35.0,30.25,SSW,194,7.0,-999.0,47,0.00,,,0.00,,2013-03-03 16:01:00,
2013-03-03 10:12:00,55.0,35.0,30.25,SSW,194,7.0,-999.0,47,0.00,,,0.00,,2013-03-03 16:12:00,
2013-03-03 10:21:00,57.0,36.0,30.25,SSW,193,13.0,-999.0,45,0.00,,,0.00,,2013-03-03 16:21:00,
2013-03-03 10:31:00,59.0,37.0,30.24,SSW,194,10.0,-999.0,44,0.00,,,0.00,,2013-03-03 16:31:00,
2013-03-03 10:42:00,59.0,37.0,30.24,SSW,194,10.0,-999.0,44,0.00,,,0.00,,2013-03-03 16:42:00,
2013-03-03 10:52:00,59.0,37.0,30.24,SSE,166,10.0,-999.0,43,0.00,,,0.00,,2013-03-03 16:52:00,
2013-03-03 11:01:00,61.0,38.0,30.23,SSW,201,9.0,-999.0,42,0.00,,,0.00,,2013-03-03 17:01:00,
2013-03-03 11:11:00,62.0,35.0,30.21,South,182,11.0,-999.0,37,0.00,,,0.00,,2013-03-03 17:11:00,
2013-03-03 11:22:00,62.0,35.0,30.21,South,182,11.0,-999.0,37,0.00,,,0.00,,2013-03-03 17:22:00,
2013-03-03 11:32:00,63.0,36.0,30.20,South,180,8.0,-999.0,37,0.00,,,0.00,,2013-03-03 17:32:00,
2013-03-03 11:42:00,63.0,36.0,30.20,South,180,8.0,-999.0,37,0.00,,,0.00,,2013-03-03 17:42:00,
2013-03-03 11:52:00,64.0,37.0,30.20,South,173,9.0,-999.0,36,0.00,,,0.00,,2013-03-03 17:52:00,
2013-03-03 12:01:00,64.0,37.0,30.19,SW,223,8.0,-999.0,37,0.00,,,0.00,,2013-03-03 18:01:00,
2013-03-03 12:11:00,64.0,37.0,30.19,SW,223,8.0,-999.0,37,0.00,,,0.00,,2013-03-03 18:11:00,
2013-03-03 12:21:00,65.0,37.0,30.18,South,187,13.0,-999.0,36,0.00,,,0.00,,2013-03-03 18:21:00,
2013-03-03 12:32:00,67.0,38.0,30.16,SSW,208,7.0,-999.0,34,0.00,,,0.00,,2013-03-03 18:32:00,
2013-03-03 12:42:00,67.0,38.0,30.16,SSW,208,7.0,-999.0,34,0.00,,,0.00,,2013-03-03 18:42:00,
2013-03-03 12:52:00,68.0,37.0,30.15,South,169,7.0,-999.0,32,0.00,,,0.00,,2013-03-03 18:52:00,
2013-03-03 13:01:00,68.0,35.0,30.14,SW,215,16.0,-999.0,30,0.00,,,0.00,,2013-03-03 19:01:00,
2013-03-03 13:11:00,69.0,36.0,30.13,SSW,201,12.0,-999.0,30,0.00,,,0.00,,2013-03-03 19:11:00,
2013-03-03 13:21:00,69.0,36.0,30.13,SSW,201,12.0,-999.0,30,0.00,,,0.00,,2013-03-03 19:21:00,
2013-03-03 13:32:00,70.0,35.0,30.11,South,169,6.0,-999.0,28,0.00,,,0.00,,2013-03-03 19:32:00,
2013-03-03 13:42:00,70.0,35.0,30.11,South,169,6.0,-999.0,28,0.00,,,0.00,,2013-03-03 19:42:00,
2013-03-03 13:52:00,71.0,35.0,30.10,SSW,209,15.0,-999.0,27,0.00,,,0.00,,2013-03-03 19:52:00,
2013-03-03 14:01:00,71.0,35.0,30.09,South,190,15.0,-999.0,27,0.00,,,0.00,,2013-03-03 20:01:00,
2013-03-03 14:11:00,71.0,35.0,30.09,South,190,15.0,-999.0,27,0.00,,,0.00,,2013-03-03 20:11:00,
2013-03-03 14:21:00,72.0,36.0,30.08,SSW,205,15.0,-999.0,27,0.00,,,0.00,,2013-03-03 20:21:00,
2013-03-03 14:32:00,72.0,36.0,30.07,South,178,15.0,-999.0,27,0.00,,,0.00,,2013-03-03 20:32:00,
2013-03-03 14:42:00,72.0,36.0,30.07,South,178,15.0,-999.0,27,0.00,,,0.00,,2013-03-03 20:42:00,
2013-03-03 14:53:00,73.0,38.0,30.06,SSW,200,17.0,-999.0,28,0.00,,,0.00,,2013-03-03 20:53:00,
2013-03-03 15:01:00,73.0,36.0,30.05,SSE,151,14.0,-999.0,26,0.00,,,0.00,,2013-03-03 21:01:00,
2013-03-03 15:11:00,73.0,36.0,30.05,SSE,151,14.0,-999.0,26,0.00,,,0.00,,2013-03-03 21:11:00,
2013-03-03 15:21:00,74.0,37.0,30.04,South,189,14.0,-999.0,26,0.00,,,0.00,,2013-03-03 21:21:00,
2013-03-03 15:32:00,74.0,37.0,30.04,South,173,12.0,-999.0,26,0.00,,,0.00,,2013-03-03 21:32:00,
2013-03-03 15:42:00,74.0,37.0,30.04,South,173,12.0,-999.0,26,0.00,,,0.00,,2013-03-03 21:42:00,
2013-03-03 15:52:00,74.0,36.0,30.03,South,178,13.0,-999.0,25,0.00,,,0.00,,2013-03-03 21:52:00,
2013-03-03 16:01:00,75.0,36.0,30.02,South,178,13.0,-999.0,24,0.00,,,0.00,,2013-03-03 22:01:00,
2013-03-03 16:11:00,75.0,36.0,30.02,South,178,13.0,-999.0,24,0.00,,,0.00,,2013-03-03 22:11:00,
2013-03-03 16:22:00,75.0,35.0,30.01,SSW,197,9.0,-999.0,23,0.00,,,0.00,,2013-03-03 22:22:00,
2013-03-03 16:32:00,76.0,34.0,30.00,South,170,12.0,-999.0,22,0.00,,,0.00,,2013-03-03 22:32:00,
2013-03-03 16:42:00,76.0,34.0,30.00,South,170,12.0,-999.0,22,0.00,,,0.00,,2013-03-03 22:42:00,
2013-03-03 16:52:00,76.0,34.0,29.99,South,172,11.0,-999.0,22,0.00,,,0.00,,2013-03-03 22:52:00,
2013-03-03 17:01:00,76.0,34.0,29.98,SSE,160,9.0,-999.0,22,0.00,,,0.00,,2013-03-03 23:01:00,
2013-03-03 17:11:00,76.0,34.0,29.98,SSE,160,9.0,-999.0,22,0.00,,,0.00,,2013-03-03 23:11:00,
2013-03-03 17:21:00,76.0,34.0,29.98,SSE,160,11.0,-999.0,22,0.00,,,0.00,,2013-03-03 23:21:00,
2013-03-03 17:31:00,76.0,34.0,29.97,South,173,7.0,-999.0,22,0.00,,,0.00,,2013-03-03 23:31:00,
2013-03-03 17:41:00,76.0,34.0,29.97,South,173,7.0,-999.0,22,0.00,,,0.00,,2013-03-03 23:41:00,
2013-03-03 17:52:00,75.0,34.0,29.97,SSE,168,8.0,-999.0,22,0.00,,,0.00,,2013-03-03 23:52:00,
2013-03-03 18:01:00,75.0,35.0,29.97,SSE,166,12.0,-999.0,23,0.00,,,0.00,,2013-03-04 00:01:00,
2013-03-03 18:11:00,75.0,35.0,29.97,SSE,166,12.0,-999.0,23,0.00,,,0.00,,2013-03-04 00:11:00,
2013-03-03 18:21:00,74.0,34.0,29.96,SSE,165,7.0,-999.0,23,0.00,,,0.00,,2013-03-04 00:21:00,
2013-03-03 18:32:00,73.0,34.0,29.96,South,175,10.0,-999.0,24,0.00,,,0.00,,2013-03-04 00:32:00,
2013-03-03 18:42:00,73.0,34.0,29.96,South,175,10.0,-999.0,24,0.00,,,0.00,,2013-03-04 00:42:00,
2013-03-03 18:52:00,72.0,33.0,29.96,SSE,154,9.0,-999.0,24,0.00,,,0.00,,2013-03-04 00:52:00,
2013-03-03 19:01:00,71.0,34.0,29.96,SSE,154,5.0,-999.0,26,0.00,,,0.00,,2013-03-04 01:01:00,
2013-03-03 19:11:00,71.0,34.0,29.96,SSE,154,5.0,-999.0,26,0.00,,,0.00,,2013-03-04 01:11:00,
2013-03-03 19:21:00,70.0,34.0,29.96,SSE,161,8.0,-999.0,27,0.00,,,0.00,,2013-03-04 01:21:00,
2013-03-03 19:32:00,69.0,34.0,29.96,SSE,166,6.0,-999.0,27,0.00,,,0.00,,2013-03-04 01:32:00,
2013-03-03 19:42:00,69.0,34.0,29.96,SSE,166,6.0,-999.0,27,0.00,,,0.00,,2013-03-04 01:42:00,
2013-03-03 19:52:00,68.0,41.0,29.96,SSE,161,10.0,-999.0,38,0.00,,,0.00,,2013-03-04 01:52:00,
2013-03-03 20:01:00,67.0,42.0,29.97,SE,134,12.0,-999.0,40,0.00,,,0.00,,2013-03-04 02:01:00,
2013-03-03 20:11:00,67.0,42.0,29.97,SE,134,12.0,-999.0,40,0.00,,,0.00,,2013-03-04 02:11:00,
2013-03-03 20:22:00,66.0,43.0,29.97,SSE,153,10.0,-999.0,44,0.00,,,0.00,,2013-03-04 02:22:00,
2013-03-03 20:32:00,65.0,43.0,29.96,SSE,159,15.0,-999.0,45,0.00,,,0.00,,2013-03-04 02:32:00,
2013-03-03 20:42:00,65.0,43.0,29.96,SSE,159,15.0,-999.0,45,0.00,,,0.00,,2013-03-04 02:42:00,
2013-03-03 20:52:00,64.0,43.0,29.96,South,170,8.0,-999.0,46,0.00,,,0.00,,2013-03-04 02:52:00,
2013-03-03 21:01:00,63.0,42.0,29.96,SE,127,8.0,-999.0,47,0.00,,,0.00,,2013-03-04 03:01:00,
2013-03-03 21:11:00,63.0,42.0,29.96,SE,127,8.0,-999.0,47,0.00,,,0.00,,2013-03-04 03:11:00,
2013-03-03 21:21:00,63.0,43.0,29.96,SE,137,11.0,-999.0,48,0.00,,,0.00,,2013-03-04 03:21:00,
2013-03-03 21:32:00,63.0,43.0,29.96,SE,137,11.0,-999.0,48,0.00,,,0.00,,2013-03-04 03:32:00,
2013-03-03 21:42:00,63.0,43.0,29.96,SE,137,11.0,-999.0,48,0.00,,,0.00,,2013-03-04 03:42:00,